Time;durP1;ratioP1;P1;durP2;ratioP2;P2;SDS_P1;SDS_P2;PMS_P1;PMS_P2;Temp;Humidity;BMP_temperature;BMP_pressure;BME280_temperature;BME280_humidity;BME280_pressure;Samples;Min_cycle;Max_cycle;Signal;HPM_P1;HPM_P2
2022/05/19 00:01:01;;;;;;;15.52;8.00;;;23.30;76.00;;;;;;5052827;28;20027;-77
2022/05/19 00:03:24;;;;;;;12.60;8.27;;;23.30;76.10;;;;;;5052597;28;20461;-77
2022/05/19 00:05:49;;;;;;;12.25;7.22;;;23.30;76.30;;;;;;5053197;28;20056;-77
2022/05/19 00:08:15;;;;;;;9.13;5.90;;;23.20;76.30;;;;;;5053286;28;20025;-77
2022/05/19 00:10:41;;;;;;;10.13;5.90;;;23.30;76.40;;;;;;5053189;28;20067;-77
2022/05/19 00:13:07;;;;;;;9.75;6.00;;;23.30;76.40;;;;;;5053195;28;20028;-77
2022/05/19 00:15:32;;;;;;;13.18;7.68;;;23.20;76.40;;;;;;5053163;28;20052;-77
2022/05/19 00:17:58;;;;;;;11.60;7.57;;;23.20;76.70;;;;;;5052572;28;20025;-77
2022/05/19 00:20:23;;;;;;;10.30;6.20;;;23.20;76.70;;;;;;5052845;28;20056;-77
2022/05/19 00:22:49;;;;;;;11.35;6.68;;;23.20;76.70;;;;;;5052861;28;20037;-77
2022/05/19 00:25:14;;;;;;;8.85;5.50;;;23.20;76.80;;;;;;5052904;28;20411;-77
2022/05/19 00:27:40;;;;;;;10.07;6.00;;;23.20;76.80;;;;;;5052769;28;20017;-77
2022/05/19 00:30:06;;;;;;;12.38;8.98;;;23.20;76.80;;;;;;5053037;28;20057;-77
2022/05/19 00:32:31;;;;;;;13.52;7.25;;;23.20;76.90;;;;;;5052691;28;20025;-77
2022/05/19 00:34:57;;;;;;;9.98;7.43;;;23.10;77.10;;;;;;5052621;28;20029;-77
2022/05/19 00:37:23;;;;;;;11.60;7.88;;;23.10;77.10;;;;;;5052610;28;20486;-77
2022/05/19 00:39:48;;;;;;;12.38;7.43;;;23.10;77.20;;;;;;5052639;28;20021;-77
2022/05/19 00:45:00;;;;;;;14.45;9.05;;;23.10;77.50;;;;;;5055916;28;20491;-76
2022/05/19 00:47:35;;;;;;;13.75;9.13;;;23.10;78.50;;;;;;5056314;28;20069;-77
2022/05/19 00:50:03;;;;;;;13.10;9.23;;;23.00;77.90;;;;;;5056542;28;20025;-77
2022/05/19 00:52:39;;;;;;;14.75;10.30;;;23.00;78.30;;;;;;5056280;28;20025;-77
2022/05/19 00:55:29;;;;;;;22.60;12.85;;;22.90;78.60;;;;;;5056292;28;20105;-77
2022/05/19 00:58:00;;;;;;;20.25;13.75;;;22.90;79.10;;;;;;5056575;28;20020;-77
2022/05/19 01:00:27;;;;;;;21.13;12.60;;;22.70;80.00;;;;;;5056154;28;20420;-77
2022/05/19 01:02:59;;;;;;;19.23;12.98;;;22.50;80.40;;;;;;5056010;28;20492;-77
2022/05/19 01:05:36;;;;;;;18.73;13.05;;;22.40;81.00;;;;;;5056413;28;20112;-77
2022/05/19 01:08:16;;;;;;;17.85;13.18;;;22.40;81.30;;;;;;5056205;28;20106;-77
2022/05/19 01:10:44;;;;;;;17.98;13.77;;;22.40;81.30;;;;;;5055964;28;20025;-77
2022/05/19 01:13:11;;;;;;;24.92;15.60;;;22.40;81.70;;;;;;5056119;28;20086;-77
2022/05/19 01:15:41;;;;;;;18.55;13.10;;;22.30;82.10;;;;;;5055760;28;20017;-77
2022/05/19 01:18:09;;;;;;;22.58;15.00;;;22.20;82.30;;;;;;5055968;28;20396;-77
2022/05/19 01:20:35;;;;;;;17.55;12.15;;;22.20;82.60;;;;;;5055987;28;20021;-77
2022/05/19 01:23:32;;;;;;;20.38;15.20;;;22.20;82.60;;;;;;5055647;28;20037;-77
2022/05/19 01:26:01;;;;;;;23.67;16.10;;;22.20;82.80;;;;;;5055947;28;20039;-77
2022/05/19 01:28:27;;;;;;;26.17;17.77;;;22.20;83.00;;;;;;5055772;28;20021;-77
2022/05/19 01:30:53;;;;;;;23.80;16.38;;;22.10;83.40;;;;;;5055775;28;20048;-77
2022/05/19 01:33:19;;;;;;;24.42;15.70;;;22.00;83.70;;;;;;5055592;28;20468;-77
2022/05/19 01:35:44;;;;;;;24.80;16.48;;;22.00;83.90;;;;;;5055584;28;20081;-77
2022/05/19 01:38:28;;;;;;;21.48;14.45;;;21.90;84.70;;;;;;5055367;28;20102;-77
2022/05/19 01:41:18;;;;;;;21.60;15.05;;;21.90;84.50;;;;;;5055470;28;20033;-76
2022/05/19 01:44:07;;;;;;;21.90;16.85;;;21.90;84.60;;;;;;5055413;28;20064;-76
2022/05/19 01:46:37;;;;;;;22.52;16.38;;;21.90;84.60;;;;;;5055335;28;20029;-76
2022/05/19 01:49:29;;;;;;;22.20;17.25;;;21.90;84.60;;;;;;5055177;28;20381;-76
2022/05/19 01:52:09;;;;;;;21.95;15.05;;;21.90;84.90;;;;;;5055414;28;20025;-76
2022/05/19 01:55:03;;;;;;;24.42;16.92;;;21.90;85.00;;;;;;5054807;28;20527;-76
2022/05/19 01:57:34;;;;;;;21.85;15.50;;;21.80;85.20;;;;;;5054872;28;20021;-76
2022/05/19 02:00:18;;;;;;;26.70;16.40;;;21.80;85.10;;;;;;5055002;28;20025;-76
2022/05/19 02:02:49;;;;;;;20.88;16.42;;;21.80;85.40;;;;;;5055284;28;20041;-76
2022/05/19 02:05:45;;;;;;;20.83;15.77;;;21.80;85.60;;;;;;5054749;28;20025;-76
2022/05/19 02:08:20;;;;;;;23.95;17.58;;;21.70;85.70;;;;;;5055127;28;20029;-76
2022/05/19 02:10:50;;;;;;;22.00;15.77;;;21.80;85.90;;;;;;5055157;28;20112;-76
2022/05/19 02:13:16;;;;;;;21.33;16.20;;;21.70;85.90;;;;;;5054751;28;20028;-76
2022/05/19 02:15:47;;;;;;;21.80;15.75;;;21.70;86.10;;;;;;5054712;28;20017;-76
2022/05/19 02:18:16;;;;;;;27.23;18.30;;;21.70;86.00;;;;;;5054496;28;20028;-76
2022/05/19 02:20:44;;;;;;;22.67;15.68;;;21.70;86.30;;;;;;5054866;28;20059;-76
2022/05/19 02:23:11;;;;;;;24.52;17.52;;;21.70;86.40;;;;;;5054701;28;20083;-76
2022/05/19 02:25:51;;;;;;;21.63;16.30;;;21.70;86.40;;;;;;5054414;28;20361;-76
2022/05/19 02:28:38;;;;;;;19.92;15.60;;;21.70;86.60;;;;;;5054600;28;20079;-76
2022/05/19 02:31:04;;;;;;;24.85;16.88;;;21.70;86.40;;;;;;5054280;28;20472;-76
2022/05/19 02:33:30;;;;;;;24.52;15.35;;;21.70;86.50;;;;;;5054410;28;20032;-77
2022/05/19 02:35:56;;;;;;;18.40;13.48;;;21.70;86.50;;;;;;5054644;28;20029;-77
2022/05/19 02:38:22;;;;;;;23.70;18.20;;;21.80;86.50;;;;;;5054369;28;20027;-76
2022/05/19 02:40:49;;;;;;;20.75;16.95;;;21.80;86.40;;;;;;5053991;28;20025;-76
2022/05/19 02:43:15;;;;;;;23.40;15.70;;;21.70;86.60;;;;;;5054039;28;20476;-76
2022/05/19 02:45:41;;;;;;;24.35;18.58;;;21.60;86.70;;;;;;5054286;28;20060;-76
2022/05/19 02:48:08;;;;;;;23.83;17.05;;;21.60;86.90;;;;;;5054014;28;20076;-76
2022/05/19 02:50:35;;;;;;;26.75;17.20;;;21.60;87.00;;;;;;5054331;28;20100;-76
2022/05/19 02:53:00;;;;;;;19.20;15.30;;;21.50;87.20;;;;;;5054209;28;20071;-76
2022/05/19 02:55:26;;;;;;;22.70;17.45;;;21.60;87.10;;;;;;5053861;28;20021;-76
2022/05/19 02:57:52;;;;;;;23.35;17.40;;;21.70;87.00;;;;;;5054087;28;20029;-76
2022/05/19 03:00:20;;;;;;;20.48;16.70;;;21.60;87.10;;;;;;5054021;28;20028;-76
2022/05/19 03:02:47;;;;;;;21.80;17.02;;;21.60;86.90;;;;;;5053424;28;20127;-76
2022/05/19 03:05:17;;;;;;;23.35;16.95;;;21.50;86.80;;;;;;5053895;28;20024;-76
2022/05/19 03:07:42;;;;;;;22.73;16.85;;;21.50;87.00;;;;;;5053352;28;20056;-76
2022/05/19 03:10:09;;;;;;;21.70;16.63;;;21.60;87.10;;;;;;5053910;28;20051;-76
2022/05/19 03:12:34;;;;;;;23.85;17.25;;;21.50;86.90;;;;;;5053419;28;20100;-76
2022/05/19 03:15:00;;;;;;;24.33;16.20;;;21.50;87.00;;;;;;5053925;28;20063;-76
2022/05/19 03:17:26;;;;;;;19.20;15.38;;;21.50;87.20;;;;;;5053866;28;20029;-76
2022/05/19 03:19:53;;;;;;;19.17;14.77;;;21.40;87.20;;;;;;5053789;28;20035;-76
2022/05/19 03:22:19;;;;;;;16.00;13.05;;;21.60;87.10;;;;;;5053394;28;20017;-76
2022/05/19 03:24:45;;;;;;;19.75;15.10;;;21.60;86.70;;;;;;5053373;28;20516;-76
2022/05/19 03:27:10;;;;;;;17.98;15.63;;;21.70;86.30;;;;;;5053456;28;20021;-77
2022/05/19 03:29:36;;;;;;;19.23;13.98;;;21.70;85.90;;;;;;5053605;28;20104;-77
2022/05/19 03:32:02;;;;;;;18.90;14.27;;;21.80;85.90;;;;;;5053310;28;20021;-76
2022/05/19 03:34:28;;;;;;;19.83;14.60;;;21.80;85.80;;;;;;5053354;28;20036;-76
2022/05/19 03:36:54;;;;;;;21.08;15.68;;;21.90;85.90;;;;;;5053358;28;20105;-77
2022/05/19 03:39:19;;;;;;;18.52;16.08;;;21.70;86.00;;;;;;5052942;28;20032;-77
2022/05/19 03:41:45;;;;;;;19.00;15.85;;;21.60;86.30;;;;;;5053548;28;20024;-76
2022/05/19 03:44:11;;;;;;;20.80;15.82;;;21.60;86.70;;;;;;5053152;28;20029;-76
2022/05/19 03:46:36;;;;;;;21.65;15.88;;;21.50;86.70;;;;;;5053214;28;20049;-76
2022/05/19 03:49:03;;;;;;;21.27;15.43;;;21.50;86.80;;;;;;5053473;28;20029;-76
2022/05/19 03:51:32;;;;;;;19.33;13.93;;;21.50;86.80;;;;;;5053238;28;20027;-77
2022/05/19 03:53:59;;;;;;;18.35;13.45;;;21.50;86.60;;;;;;5052805;28;20091;-76
2022/05/19 03:56:25;;;;;;;19.85;13.85;;;21.60;86.50;;;;;;5053099;28;20469;-76
2022/05/19 03:58:52;;;;;;;17.38;14.25;;;21.60;86.30;;;;;;5052776;28;20484;-76
2022/05/19 04:01:19;;;;;;;18.55;14.05;;;21.70;86.30;;;;;;5053137;28;20060;-76
2022/05/19 04:03:46;;;;;;;17.08;12.80;;;21.70;86.30;;;;;;5053199;28;20029;-76
2022/05/19 04:06:11;;;;;;;16.38;12.60;;;21.70;86.30;;;;;;5053314;28;20032;-77
2022/05/19 04:08:37;;;;;;;15.25;11.50;;;21.70;86.10;;;;;;5053123;28;20021;-77
2022/05/19 04:11:04;;;;;;;16.98;12.82;;;21.70;86.20;;;;;;5053250;28;20411;-76
2022/05/19 04:13:30;;;;;;;15.02;10.90;;;21.80;86.00;;;;;;5052835;28;20025;-76
2022/05/19 04:15:56;;;;;;;15.30;9.75;;;21.80;85.70;;;;;;5052818;28;20028;-76
2022/05/19 04:18:22;;;;;;;11.75;9.68;;;21.80;85.60;;;;;;5055219;28;20037;-76
2022/05/19 04:20:48;;;;;;;15.30;9.65;;;21.80;85.40;;;;;;5057205;28;20029;-76
2022/05/19 04:23:14;;;;;;;10.65;7.65;;;21.80;85.00;;;;;;5056396;28;20068;-76
2022/05/19 04:25:40;;;;;;;10.50;8.27;;;21.80;84.80;;;;;;5056705;28;20021;-76
2022/05/19 04:28:06;;;;;;;12.98;8.05;;;21.80;84.50;;;;;;5056910;28;20087;-76
2022/05/19 04:30:32;;;;;;;11.13;6.50;;;21.80;84.40;;;;;;5056989;28;20021;-76
2022/05/19 04:32:57;;;;;;;9.80;6.13;;;21.80;84.20;;;;;;5056561;28;20480;-76
2022/05/19 04:35:24;;;;;;;11.05;6.55;;;21.90;84.10;;;;;;5056631;28;20447;-76
2022/05/19 04:37:50;;;;;;;8.40;5.70;;;21.90;83.70;;;;;;5056755;28;20025;-76
2022/05/19 04:40:17;;;;;;;9.50;4.50;;;21.90;83.50;;;;;;5056378;28;20531;-76
2022/05/19 04:42:44;;;;;;;6.78;3.45;;;21.90;83.20;;;;;;5056472;28;20116;-76
2022/05/19 04:45:12;;;;;;;7.18;3.72;;;22.00;83.00;;;;;;5056605;28;20028;-77
2022/05/19 04:47:38;;;;;;;5.18;2.97;;;22.00;82.90;;;;;;5056256;28;20179;-77
2022/05/19 04:50:04;;;;;;;3.50;2.72;;;22.10;82.30;;;;;;5056171;28;20133;-77
2022/05/19 04:52:30;;;;;;;4.07;2.40;;;22.10;82.10;;;;;;5056092;28;20032;-77
2022/05/19 04:54:56;;;;;;;5.75;2.10;;;22.10;81.70;;;;;;5056138;28;20357;-77
2022/05/19 04:57:21;;;;;;;5.35;1.95;;;22.10;81.50;;;;;;5056466;28;20357;-77
2022/05/19 04:59:48;;;;;;;5.00;1.65;;;22.10;81.20;;;;;;5056027;28;20103;-77
2022/05/19 05:02:13;;;;;;;3.22;1.95;;;22.20;80.90;;;;;;5056235;28;20053;-77
2022/05/19 05:04:39;;;;;;;2.85;1.80;;;22.10;80.50;;;;;;5055831;28;20112;-77
2022/05/19 05:07:05;;;;;;;5.15;1.80;;;22.10;80.20;;;;;;5055778;28;20103;-77
2022/05/19 05:09:32;;;;;;;2.45;1.67;;;22.10;80.40;;;;;;5056156;28;20036;-77
2022/05/19 05:11:57;;;;;;;3.55;1.83;;;22.10;80.40;;;;;;5056047;28;20043;-77
2022/05/19 05:14:23;;;;;;;3.92;1.70;;;22.10;80.80;;;;;;5056051;28;20464;-77
2022/05/19 05:16:50;;;;;;;4.38;1.60;;;22.10;81.10;;;;;;5055469;28;20029;-77
2022/05/19 05:19:19;;;;;;;2.67;1.38;;;22.10;81.10;;;;;;5055793;28;20468;-77
2022/05/19 05:21:49;;;;;;;5.60;1.60;;;22.20;81.80;;;;;;5055649;28;20036;-77
2022/05/19 05:24:15;;;;;;;3.20;1.70;;;22.20;81.20;;;;;;5055634;28;20033;-77
2022/05/19 05:26:40;;;;;;;5.68;1.60;;;22.20;81.30;;;;;;5055710;28;20488;-77
2022/05/19 05:29:06;;;;;;;4.43;1.52;;;22.20;81.60;;;;;;5054969;28;20036;-77
2022/05/19 05:31:31;;;;;;;2.97;1.30;;;22.20;81.40;;;;;;5055801;28;20131;-77
2022/05/19 05:33:57;;;;;;;1.83;0.95;;;22.20;80.90;;;;;;5055540;28;20053;-77
2022/05/19 05:36:23;;;;;;;1.95;1.15;;;22.20;79.80;;;;;;5055503;28;20029;-77
2022/05/19 05:38:48;;;;;;;1.25;0.63;;;22.20;79.10;;;;;;5055382;28;20495;-77
2022/05/19 05:41:14;;;;;;;1.27;0.80;;;22.20;78.60;;;;;;5055510;28;20024;-77
2022/05/19 05:43:40;;;;;;;1.63;0.70;;;22.10;78.60;;;;;;5055478;28;20032;-77
2022/05/19 05:46:11;;;;;;;1.58;0.65;;;22.10;78.60;;;;;;5055350;28;20488;-77
2022/05/19 05:48:37;;;;;;;3.08;1.10;;;22.00;78.70;;;;;;5055300;28;20041;-77
2022/05/19 05:51:04;;;;;;;2.08;0.88;;;22.00;78.90;;;;;;5054916;28;20419;-77
2022/05/19 05:53:31;;;;;;;1.35;0.80;;;22.00;79.00;;;;;;5055264;28;20029;-78
2022/05/19 05:55:56;;;;;;;3.45;0.93;;;22.00;79.00;;;;;;5053747;28;20108;-76
2022/05/19 05:58:22;;;;;;;2.38;1.00;;;22.10;79.70;;;;;;5053416;28;20108;-75
2022/05/19 06:00:47;;;;;;;3.83;0.90;;;22.20;79.90;;;;;;5052864;28;20017;-76
2022/05/19 06:03:13;;;;;;;5.32;1.00;;;22.20;79.40;;;;;;5053548;28;20052;-75
2022/05/19 06:05:38;;;;;;;2.67;0.90;;;22.30;79.50;;;;;;5054528;28;20044;-76
2022/05/19 06:08:04;;;;;;;2.58;1.17;;;22.30;79.30;;;;;;5054845;28;20035;-76
2022/05/19 06:10:30;;;;;;;1.20;0.68;;;22.30;79.50;;;;;;5055101;28;20067;-78
2022/05/19 06:12:56;;;;;;;1.13;0.77;;;22.40;79.40;;;;;;5054696;28;20117;-78
2022/05/19 06:15:22;;;;;;;2.05;0.82;;;22.50;79.10;;;;;;5054292;28;20481;-76
2022/05/19 06:17:48;;;;;;;3.25;1.10;;;22.50;79.20;;;;;;5052526;28;20472;-75
2022/05/19 06:20:16;;;;;;;2.75;1.25;;;22.30;79.40;;;;;;5053412;28;20048;-76
2022/05/19 06:22:43;;;;;;;2.17;1.08;;;22.30;79.90;;;;;;5052254;28;20029;-76
2022/05/19 06:25:11;;;;;;;2.13;1.05;;;22.30;80.30;;;;;;5053471;28;20071;-76
2022/05/19 06:27:37;;;;;;;1.95;1.02;;;22.30;80.90;;;;;;5054293;28;20562;-76
2022/05/19 06:30:07;;;;;;;2.33;0.90;;;22.30;80.50;;;;;;5054339;28;20108;-76
2022/05/19 06:32:33;;;;;;;1.77;0.70;;;22.30;81.00;;;;;;5053747;28;20028;-77
2022/05/19 06:34:58;;;;;;;3.10;0.90;;;22.30;80.70;;;;;;5054387;28;20073;-78
2022/05/19 06:37:24;;;;;;;4.60;1.52;;;22.50;80.70;;;;;;5053599;28;20532;-75
2022/05/19 06:39:49;;;;;;;3.33;1.00;;;22.60;80.70;;;;;;5053812;28;20052;-78
2022/05/19 06:42:15;;;;;;;3.72;0.90;;;22.60;80.90;;;;;;5053129;28;20029;-76
2022/05/19 06:44:42;;;;;;;2.20;0.98;;;22.70;80.00;;;;;;5054341;28;20028;-76
2022/05/19 06:47:13;;;;;;;3.95;1.27;;;22.60;79.30;;;;;;5054021;28;20052;-76
2022/05/19 06:49:51;;;;;;;2.72;1.00;;;22.60;79.20;;;;;;5053436;28;20107;-76
2022/05/19 06:52:26;;;;;;;1.90;0.98;;;22.50;79.30;;;;;;5052342;28;20033;-76
2022/05/19 06:54:54;;;;;;;5.28;1.20;;;22.50;78.60;;;;;;5047970;28;20464;-76
2022/05/19 06:57:21;;;;;;;3.35;1.70;;;22.40;78.90;;;;;;5052451;28;20122;-76
2022/05/19 06:59:49;;;;;;;3.47;1.00;;;22.30;78.90;;;;;;5052265;28;20024;-76
2022/05/19 07:02:16;;;;;;;2.10;1.10;;;22.30;79.20;;;;;;5051272;28;20024;-76
2022/05/19 07:04:44;;;;;;;5.35;1.20;;;22.50;79.00;;;;;;5052014;28;20480;-76
2022/05/19 07:07:10;;;;;;;2.92;0.95;;;22.60;78.80;;;;;;5052287;28;20025;-74
2022/05/19 07:09:37;;;;;;;2.95;0.90;;;22.70;78.70;;;;;;5052676;28;20037;-76
2022/05/19 07:12:05;;;;;;;4.25;1.08;;;22.80;78.40;;;;;;5051863;28;20580;-75
2022/05/19 07:14:32;;;;;;;3.60;1.08;;;22.90;78.30;;;;;;5051849;28;20370;-76
2022/05/19 07:16:57;;;;;;;2.05;1.02;;;23.00;78.10;;;;;;5052321;28;20059;-77
2022/05/19 07:22:14;;;;;;;3.40;0.95;;;23.20;77.90;;;;;;5051494;28;20043;-77
2022/05/19 07:24:40;;;;;;;2.58;1.30;;;23.30;78.10;;;;;;5052137;28;20075;-77
2022/05/19 07:27:05;;;;;;;3.53;1.13;;;23.40;77.90;;;;;;5051906;28;20036;-76
2022/05/19 07:29:31;;;;;;;1.90;0.93;;;23.40;78.40;;;;;;5051629;28;20116;-76
2022/05/19 07:32:00;;;;;;;1.40;0.93;;;23.50;78.00;;;;;;5051793;28;20049;-77
2022/05/19 07:34:28;;;;;;;3.10;1.13;;;23.60;77.80;;;;;;5051804;28;20120;-77
2022/05/19 07:36:54;;;;;;;1.88;1.02;;;23.60;77.50;;;;;;5052135;28;20384;-78
2022/05/19 07:39:20;;;;;;;2.00;1.10;;;23.60;77.40;;;;;;5053315;28;20025;-78
2022/05/19 07:41:46;;;;;;;5.85;1.20;;;23.60;77.50;;;;;;5054739;28;20380;-78
2022/05/19 07:44:12;;;;;;;2.70;0.80;;;23.60;77.60;;;;;;5054368;28;20447;-78
2022/05/19 07:46:38;;;;;;;4.47;1.17;;;23.60;77.50;;;;;;5053088;28;20065;-76
2022/05/19 07:49:03;;;;;;;7.72;2.08;;;23.70;77.20;;;;;;5048838;28;20172;-78
2022/05/19 07:51:36;;;;;;;5.32;1.13;;;23.80;77.10;;;;;;5049823;28;20024;-78
2022/05/19 07:54:05;;;;;;;3.47;1.00;;;23.80;77.10;;;;;;5049146;28;20025;-78
2022/05/19 07:56:34;;;;;;;4.63;1.10;;;23.90;77.30;;;;;;5050743;28;20090;-78
2022/05/19 07:59:01;;;;;;;3.05;1.45;;;23.80;77.30;;;;;;5051043;28;20112;-82
2022/05/19 08:01:27;;;;;;;5.97;1.17;;;23.80;77.40;;;;;;5051379;28;20104;-83
2022/05/19 08:03:53;;;;;;;1.98;0.90;;;23.90;77.50;;;;;;5050479;28;20047;-81
2022/05/19 08:06:18;;;;;;;1.60;1.00;;;23.80;76.90;;;;;;5051246;28;20854;-77
2022/05/19 08:08:45;;;;;;;4.43;1.52;;;23.80;77.90;;;;;;5051375;28;20048;-82
2022/05/19 08:11:11;;;;;;;6.50;1.65;;;23.80;78.20;;;;;;5051180;28;20457;-82
2022/05/19 08:16:22;;;;;;;5.30;2.15;;;23.80;78.10;;;;;;5050728;28;20116;-79
2022/05/19 08:18:48;;;;;;;2.83;1.80;;;23.90;78.90;;;;;;5048538;28;20089;-76
2022/05/19 08:21:15;;;;;;;3.70;1.60;;;24.00;78.80;;;;;;5051758;28;20116;-78
2022/05/19 08:23:45;;;;;;;4.55;1.55;;;24.10;77.70;;;;;;5052243;28;20071;-77
2022/05/19 08:26:11;;;;;;;4.10;1.88;;;24.20;77.00;;;;;;5051137;28;20032;-80
2022/05/19 08:28:38;;;;;;;3.08;1.67;;;24.30;75.90;;;;;;5051137;28;20050;-82
2022/05/19 08:31:09;;;;;;;4.28;1.52;;;24.50;76.10;;;;;;5050991;28;20021;-80
2022/05/19 08:33:36;;;;;;;2.00;1.20;;;24.70;76.90;;;;;;5049069;28;20040;-82
2022/05/19 08:36:03;;;;;;;5.18;1.90;;;24.90;77.40;;;;;;5051206;28;20028;-77
2022/05/19 08:38:29;;;;;;;3.70;2.00;;;25.20;77.30;;;;;;5050839;28;20116;-78
2022/05/19 08:41:02;;;;;;;2.65;1.58;;;25.30;74.50;;;;;;5051250;28;20037;-78
2022/05/19 08:43:54;;;;;;;2.70;1.50;;;25.30;73.70;;;;;;5051246;28;20431;-78
2022/05/19 08:46:23;;;;;;;3.00;1.65;;;25.50;74.40;;;;;;5049337;28;20036;-78
2022/05/19 08:48:53;;;;;;;2.15;1.85;;;25.60;74.00;;;;;;5050240;28;20098;-79
2022/05/19 08:51:24;;;;;;;3.28;2.10;;;25.70;74.30;;;;;;5051386;28;20075;-78
2022/05/19 08:53:49;;;;;;;5.20;1.80;;;25.90;73.10;;;;;;5051035;28;20028;-77
2022/05/19 08:56:30;;;;;;;8.52;1.80;;;26.00;72.90;;;;;;5050609;28;20029;-77
2022/05/19 08:59:33;;;;;;;3.85;1.52;;;26.10;72.20;;;;;;5050829;28;20035;-77
2022/05/19 09:02:13;;;;;;;4.60;2.25;;;26.30;73.30;;;;;;5049666;28;20104;-77
2022/05/19 09:04:57;;;;;;;5.95;2.30;;;26.40;71.10;;;;;;5050240;28;20039;-77
2022/05/19 09:10:37;;;;;;;4.30;2.20;;;26.20;70.50;;;;;;5052632;28;20564;-77
2022/05/19 09:13:21;;;;;;;3.90;2.38;;;26.30;70.10;;;;;;5054293;28;20017;-78
2022/05/19 09:15:48;;;;;;;4.70;1.73;;;26.40;70.50;;;;;;5054325;28;20075;-76
2022/05/19 09:18:18;;;;;;;3.40;2.05;;;26.40;70.50;;;;;;5054000;28;20036;-75
2022/05/19 09:20:55;;;;;;;3.47;2.13;;;26.50;69.90;;;;;;5052780;28;20021;-75
2022/05/19 09:23:23;;;;;;;3.95;2.55;;;26.50;69.90;;;;;;5053897;28;20037;-75
2022/05/19 09:25:52;;;;;;;3.50;2.40;;;26.40;71.20;;;;;;5054260;28;20053;-75
2022/05/19 09:28:19;;;;;;;32.83;23.25;;;26.40;68.90;;;;;;5054851;28;20119;-75
2022/05/19 09:30:54;;;;;;;15.00;9.57;;;26.50;69.80;;;;;;5052411;28;20573;-73
2022/05/19 09:33:33;;;;;;;8.07;3.28;;;26.60;70.50;;;;;;5051945;28;20366;-74
2022/05/19 09:36:00;;;;;;;3.55;2.75;;;26.70;69.00;;;;;;5052286;28;20022;-74
2022/05/19 09:38:32;;;;;;;4.25;2.15;;;26.70;69.30;;;;;;5051883;28;20480;-74
2022/05/19 09:41:05;;;;;;;3.85;2.15;;;26.80;70.10;;;;;;5050578;28;20377;-73
2022/05/19 09:43:36;;;;;;;5.50;3.35;;;27.00;69.70;;;;;;5049730;28;20041;-74
2022/05/19 09:46:21;;;;;;;5.68;3.13;;;27.10;68.20;;;;;;5050831;28;20017;-75
2022/05/19 09:49:01;;;;;;;7.07;2.60;;;27.10;68.80;;;;;;5052721;28;20037;-75
2022/05/19 09:51:32;;;;;;;6.32;3.00;;;27.10;69.50;;;;;;5053752;28;20033;-75
2022/05/19 09:53:59;;;;;;;4.90;3.05;;;27.10;69.40;;;;;;5053436;28;20086;-74
2022/05/19 09:56:37;;;;;;;5.72;3.20;;;27.00;68.40;;;;;;5053737;28;20098;-75
2022/05/19 09:59:13;;;;;;;4.72;2.33;;;26.90;68.50;;;;;;5052064;28;20036;-74
2022/05/19 10:01:43;;;;;;;10.48;2.45;;;26.80;68.90;;;;;;5053267;28;20025;-74
2022/05/19 10:04:29;;;;;;;4.25;2.70;;;26.80;67.70;;;;;;5053076;28;20055;-74
2022/05/19 10:06:57;;;;;;;3.78;2.33;;;26.70;67.90;;;;;;5052241;28;20100;-74
2022/05/19 10:09:31;;;;;;;6.68;1.95;;;26.60;68.60;;;;;;5050486;28;20037;-79
2022/05/19 10:12:12;;;;;;;5.28;2.03;;;26.60;68.70;;;;;;5051417;28;20025;-79
2022/05/19 10:14:43;;;;;;;3.95;1.35;;;26.60;69.00;;;;;;5053244;28;20528;-76
2022/05/19 10:17:15;;;;;;;2.00;1.30;;;26.60;69.10;;;;;;5052340;28;20025;-78
2022/05/19 10:19:49;;;;;;;2.78;1.40;;;26.70;69.40;;;;;;5053240;28;20449;-78
2022/05/19 10:22:40;;;;;;;1.67;1.40;;;26.80;69.60;;;;;;5053061;28;20036;-78
2022/05/19 10:25:37;;;;;;;3.33;1.60;;;26.90;69.00;;;;;;5053032;28;20383;-80
2022/05/19 10:31:22;;;;;;;6.13;2.05;;;27.20;66.50;;;;;;5053802;28;20522;-79
2022/05/19 10:34:20;;;;;;;2.53;1.43;;;27.20;66.10;;;;;;5051031;28;20029;-76
2022/05/19 10:37:07;;;;;;;9.13;2.20;;;27.40;67.40;;;;;;5052918;28;20037;-77
2022/05/19 10:40:04;;;;;;;3.65;1.60;;;27.50;66.80;;;;;;5052960;28;20083;-76
2022/05/19 10:43:14;;;;;;;3.97;1.20;;;27.50;65.60;;;;;;5051852;28;20032;-77
2022/05/19 10:45:46;;;;;;;3.30;1.50;;;27.70;65.20;;;;;;5031160;28;20037;-76
2022/05/19 10:48:52;;;;;;;3.17;1.42;;;27.80;64.60;;;;;;5052368;28;20094;-81
2022/05/19 10:51:34;;;;;;;4.07;1.40;;;28.00;63.80;;;;;;5050388;28;20137;-80
2022/05/19 10:54:10;;;;;;;2.95;1.55;;;28.00;63.70;;;;;;5052476;28;20028;-77
2022/05/19 10:56:48;;;;;;;4.07;1.50;;;27.90;63.80;;;;;;5052308;28;20040;-77
2022/05/19 10:59:35;;;;;;;3.90;1.30;;;27.80;62.80;;;;;;5052418;28;20605;-78
2022/05/19 11:02:25;;;;;;;5.53;1.60;;;27.80;64.30;;;;;;5049849;28;20391;-75
2022/05/19 11:05:15;;;;;;;5.95;1.50;;;27.80;63.60;;;;;;5050207;28;20025;-76
2022/05/19 11:07:56;;;;;;;1.75;1.33;;;27.70;64.90;;;;;;5052013;28;20104;-76
2022/05/19 11:10:54;;;;;;;3.38;1.48;;;27.80;64.30;;;;;;5051741;28;20029;-78
2022/05/19 11:13:42;;;;;;;4.60;1.42;;;27.80;64.20;;;;;;5034995;28;20039;-79
2022/05/19 11:16:36;;;;;;;3.63;1.10;;;27.90;64.00;;;;;;5051614;28;20028;-81
2022/05/19 11:19:06;;;;;;;5.15;1.55;;;27.90;64.40;;;;;;5051810;28;20036;-81
2022/05/19 11:21:55;;;;;;;4.57;2.08;;;28.00;63.20;;;;;;5047649;28;20036;-78
2022/05/19 11:27:40;;;;;;;5.38;2.50;;;28.00;62.40;;;;;;5051590;28;20032;-78
2022/05/19 11:30:16;;;;;;;4.30;2.57;;;27.80;62.40;;;;;;5048252;28;20069;-77
2022/05/19 11:32:42;;;;;;;4.30;1.98;;;27.50;62.60;;;;;;5051773;28;20112;-75
2022/05/19 11:35:13;;;;;;;4.20;1.90;;;27.50;64.10;;;;;;5051123;28;20025;-77
2022/05/19 11:38:17;;;;;;;5.83;1.83;;;27.40;63.40;;;;;;5050129;28;20060;-77
2022/05/19 11:41:06;;;;;;;4.30;1.92;;;27.40;63.70;;;;;;5051322;28;20025;-78
2022/05/19 11:43:43;;;;;;;6.30;2.00;;;27.40;64.10;;;;;;5049457;28;20041;-77
2022/05/19 11:46:17;;;;;;;3.38;1.73;;;27.30;64.10;;;;;;5047247;28;20029;-80
2022/05/19 11:57:58;;;;;;;4.70;1.75;;;27.00;65.20;;;;;;5051442;28;20028;-80
2022/05/19 12:00:52;;;;;;;8.27;1.88;;;26.90;66.10;;;;;;5045175;28;20447;-80
2022/05/19 12:03:29;;;;;;;5.57;2.22;;;26.80;68.00;;;;;;5048066;28;20392;-80
2022/05/19 12:06:02;;;;;;;6.50;2.42;;;26.70;68.80;;;;;;5051579;28;20356;-80
2022/05/19 12:08:34;;;;;;;4.70;2.25;;;26.60;70.20;;;;;;5051418;28;20040;-80
2022/05/19 12:11:08;;;;;;;6.80;2.65;;;26.40;70.90;;;;;;5051689;28;20028;-80
2022/05/19 12:13:36;;;;;;;9.27;2.50;;;26.30;72.70;;;;;;5051249;28;20033;-79
2022/05/19 12:16:14;;;;;;;20.33;3.85;;;26.20;72.60;;;;;;5050739;28;20029;-79
2022/05/19 12:19:06;;;;;;;10.75;4.22;;;26.10;74.30;;;;;;5049936;28;20037;-79
2022/05/19 12:21:48;;;;;;;5.93;1.25;;;26.00;76.90;;;;;;5051876;28;20020;-78
2022/05/19 12:24:15;;;;;;;10.73;1.52;;;25.30;75.40;;;;;;5051354;28;20120;-78
2022/05/19 12:26:56;;;;;;;10.57;1.73;;;24.20;79.90;;;;;;5051024;28;20017;-76
2022/05/19 12:29:34;;;;;;;9.15;1.20;;;23.00;81.90;;;;;;5051182;28;20033;-78
2022/05/19 12:32:16;;;;;;;4.72;1.20;;;21.80;84.80;;;;;;5050466;28;20028;-77
2022/05/19 12:34:51;;;;;;;7.03;0.57;;;20.80;87.00;;;;;;5051981;28;20488;-77
2022/05/19 12:37:42;;;;;;;4.95;0.47;;;20.30;90.00;;;;;;5051198;28;20536;-77
2022/05/19 12:40:19;;;;;;;2.42;0.30;;;20.00;90.80;;;;;;5054830;28;20495;-77
2022/05/19 12:42:46;;;;;;;3.03;0.30;;;19.70;91.90;;;;;;5054737;28;20120;-77
2022/05/19 12:45:18;;;;;;;1.48;0.38;;;19.60;92.30;;;;;;5054812;28;20060;-77
2022/05/19 12:47:58;;;;;;;4.07;0.40;;;19.60;93.20;;;;;;5054628;28;20045;-79
2022/05/19 12:50:45;;;;;;;3.50;0.68;;;19.60;93.90;;;;;;5054785;28;20466;-78
2022/05/19 12:53:42;;;;;;;2.50;0.70;;;19.60;94.30;;;;;;5054433;28;20068;-76
2022/05/19 12:56:09;;;;;;;3.47;1.02;;;19.70;94.90;;;;;;5055107;28;20090;-76
2022/05/19 12:58:39;;;;;;;4.57;1.45;;;19.80;95.60;;;;;;5054771;28;20021;-77
2022/05/19 13:01:12;;;;;;;3.80;1.70;;;19.80;96.00;;;;;;5054290;28;20029;-77
2022/05/19 13:03:40;;;;;;;9.10;1.60;;;19.70;96.40;;;;;;5054463;28;20082;-77
2022/05/19 13:06:06;;;;;;;7.00;1.50;;;19.70;96.80;;;;;;5054406;28;20021;-76
2022/05/19 13:08:32;;;;;;;5.05;2.58;;;19.70;97.00;;;;;;5054876;28;20376;-76
2022/05/19 13:11:01;;;;;;;4.97;1.75;;;19.70;97.10;;;;;;5053800;28;20476;-77
2022/05/19 13:13:36;;;;;;;3.65;1.73;;;19.60;97.30;;;;;;5053983;28;20033;-77
2022/05/19 13:16:20;;;;;;;5.18;1.80;;;19.50;97.50;;;;;;5052032;28;20043;-78
2022/05/19 13:18:52;;;;;;;5.07;1.40;;;19.60;97.40;;;;;;5053300;28;20035;-78
2022/05/19 13:21:27;;;;;;;4.72;1.33;;;19.60;97.40;;;;;;5040912;28;20029;-79
2022/05/19 13:23:53;;;;;;;5.47;1.60;;;19.70;97.40;;;;;;5054269;28;20040;-77
2022/05/19 13:26:28;;;;;;;5.25;1.90;;;19.90;97.30;;;;;;5054223;28;20033;-77
2022/05/19 13:31:51;;;;;;;6.03;1.48;;;20.20;96.90;;;;;;5055445;28;20076;-78